sensor_id;sensor_type;location;lat;lon;timestamp;temperature;humidity
14401;DHT22;7285;50.894;5.462;2023-04-07T00:01:51;8.60;99.90
14401;DHT22;7285;50.894;5.462;2023-04-07T00:04:18;8.50;99.90
14401;DHT22;7285;50.894;5.462;2023-04-07T00:06:46;8.50;99.90
14401;DHT22;7285;50.894;5.462;2023-04-07T00:09:13;8.60;99.90
14401;DHT22;7285;50.894;5.462;2023-04-07T00:11:40;8.60;99.90
14401;DHT22;7285;50.894;5.462;2023-04-07T00:14:08;8.60;99.90
14401;DHT22;7285;50.894;5.462;2023-04-07T00:16:35;8.60;99.90
14401;DHT22;7285;50.894;5.462;2023-04-07T00:19:02;8.60;99.90
14401;DHT22;7285;50.894;5.462;2023-04-07T00:21:29;8.60;99.90
14401;DHT22;7285;50.894;5.462;2023-04-07T00:23:58;8.50;99.90
14401;DHT22;7285;50.894;5.462;2023-04-07T00:26:25;8.60;99.90
14401;DHT22;7285;50.894;5.462;2023-04-07T00:28:56;8.50;99.90
14401;DHT22;7285;50.894;5.462;2023-04-07T00:31:23;8.50;99.90
14401;DHT22;7285;50.894;5.462;2023-04-07T00:33:50;8.50;99.90
14401;DHT22;7285;50.894;5.462;2023-04-07T00:36:17;8.50;99.90
14401;DHT22;7285;50.894;5.462;2023-04-07T00:38:44;8.40;99.90
14401;DHT22;7285;50.894;5.462;2023-04-07T00:41:12;8.30;99.90
14401;DHT22;7285;50.894;5.462;2023-04-07T00:43:39;8.30;99.90
14401;DHT22;7285;50.894;5.462;2023-04-07T00:46:06;8.20;99.90
14401;DHT22;7285;50.894;5.462;2023-04-07T00:48:33;8.20;99.90
14401;DHT22;7285;50.894;5.462;2023-04-07T00:51:00;8.10;99.90
14401;DHT22;7285;50.894;5.462;2023-04-07T00:53:28;8.10;99.90
14401;DHT22;7285;50.894;5.462;2023-04-07T00:55:55;8.00;99.90
14401;DHT22;7285;50.894;5.462;2023-04-07T00:58:23;8.00;99.90
14401;DHT22;7285;50.894;5.462;2023-04-07T01:00:54;8.00;99.90
14401;DHT22;7285;50.894;5.462;2023-04-07T01:03:29;7.90;99.90
14401;DHT22;7285;50.894;5.462;2023-04-07T01:05:59;7.90;99.90
14401;DHT22;7285;50.894;5.462;2023-04-07T01:08:31;7.90;99.90
14401;DHT22;7285;50.894;5.462;2023-04-07T01:11:04;7.90;99.90
14401;DHT22;7285;50.894;5.462;2023-04-07T01:13:37;7.80;99.90
14401;DHT22;7285;50.894;5.462;2023-04-07T01:16:14;7.90;99.90
14401;DHT22;7285;50.894;5.462;2023-04-07T01:18:43;7.70;99.90
14401;DHT22;7285;50.894;5.462;2023-04-07T01:21:14;7.80;99.90
14401;DHT22;7285;50.894;5.462;2023-04-07T01:23:54;7.80;99.90
14401;DHT22;7285;50.894;5.462;2023-04-07T01:26:25;7.80;99.90
14401;DHT22;7285;50.894;5.462;2023-04-07T01:29:32;7.70;99.90
14401;DHT22;7285;50.894;5.462;2023-04-07T01:32:01;7.70;99.90
14401;DHT22;7285;50.894;5.462;2023-04-07T01:34:31;7.70;99.90
14401;DHT22;7285;50.894;5.462;2023-04-07T01:37:00;7.70;99.90
14401;DHT22;7285;50.894;5.462;2023-04-07T01:39:28;7.60;99.90
14401;DHT22;7285;50.894;5.462;2023-04-07T01:41:56;7.60;99.90
14401;DHT22;7285;50.894;5.462;2023-04-07T01:44:24;7.60;99.90
14401;DHT22;7285;50.894;5.462;2023-04-07T01:46:53;7.40;99.90
14401;DHT22;7285;50.894;5.462;2023-04-07T01:49:21;7.40;99.90
14401;DHT22;7285;50.894;5.462;2023-04-07T01:51:49;7.50;99.90
14401;DHT22;7285;50.894;5.462;2023-04-07T01:54:17;7.50;99.90
14401;DHT22;7285;50.894;5.462;2023-04-07T01:56:44;7.60;99.90
14401;DHT22;7285;50.894;5.462;2023-04-07T01:59:11;7.60;99.90
14401;DHT22;7285;50.894;5.462;2023-04-07T02:01:38;7.70;99.90
14401;DHT22;7285;50.894;5.462;2023-04-07T02:04:10;7.70;99.90
14401;DHT22;7285;50.894;5.462;2023-04-07T02:06:42;7.80;99.90
14401;DHT22;7285;50.894;5.462;2023-04-07T02:09:14;7.80;99.90
14401;DHT22;7285;50.894;5.462;2023-04-07T02:11:43;7.90;99.90
14401;DHT22;7285;50.894;5.462;2023-04-07T02:14:11;7.80;99.90
14401;DHT22;7285;50.894;5.462;2023-04-07T02:16:40;7.80;99.90
14401;DHT22;7285;50.894;5.462;2023-04-07T02:19:09;7.90;99.90
14401;DHT22;7285;50.894;5.462;2023-04-07T02:21:39;8.00;99.90
14401;DHT22;7285;50.894;5.462;2023-04-07T02:24:07;8.00;99.90
14401;DHT22;7285;50.894;5.462;2023-04-07T02:26:34;7.90;99.90
14401;DHT22;7285;50.894;5.462;2023-04-07T02:29:02;7.80;99.90
14401;DHT22;7285;50.894;5.462;2023-04-07T02:31:29;7.90;99.90
14401;DHT22;7285;50.894;5.462;2023-04-07T02:33:56;8.00;99.90
14401;DHT22;7285;50.894;5.462;2023-04-07T02:36:24;7.90;99.90
14401;DHT22;7285;50.894;5.462;2023-04-07T02:38:51;7.90;99.90
14401;DHT22;7285;50.894;5.462;2023-04-07T02:41:18;8.00;99.90
14401;DHT22;7285;50.894;5.462;2023-04-07T02:43:45;8.00;99.90
14401;DHT22;7285;50.894;5.462;2023-04-07T02:46:12;7.90;99.90
14401;DHT22;7285;50.894;5.462;2023-04-07T02:48:39;7.90;99.90
14401;DHT22;7285;50.894;5.462;2023-04-07T02:51:06;7.90;99.90
14401;DHT22;7285;50.894;5.462;2023-04-07T02:53:35;7.90;99.90
14401;DHT22;7285;50.894;5.462;2023-04-07T02:56:02;8.00;99.90
14401;DHT22;7285;50.894;5.462;2023-04-07T02:58:29;7.90;99.90
14401;DHT22;7285;50.894;5.462;2023-04-07T03:00:56;8.00;99.90
14401;DHT22;7285;50.894;5.462;2023-04-07T03:03:23;8.00;99.90
14401;DHT22;7285;50.894;5.462;2023-04-07T03:05:50;7.90;99.90
14401;DHT22;7285;50.894;5.462;2023-04-07T03:08:16;8.00;99.90
14401;DHT22;7285;50.894;5.462;2023-04-07T03:10:45;8.00;99.90
14401;DHT22;7285;50.894;5.462;2023-04-07T03:13:12;7.90;99.90
14401;DHT22;7285;50.894;5.462;2023-04-07T03:15:41;7.90;99.90
14401;DHT22;7285;50.894;5.462;2023-04-07T03:18:08;7.90;99.90
14401;DHT22;7285;50.894;5.462;2023-04-07T03:20:35;7.90;99.90
14401;DHT22;7285;50.894;5.462;2023-04-07T03:23:02;7.90;99.90
14401;DHT22;7285;50.894;5.462;2023-04-07T03:25:29;7.90;99.90
14401;DHT22;7285;50.894;5.462;2023-04-07T03:27:58;7.90;99.90
14401;DHT22;7285;50.894;5.462;2023-04-07T03:30:25;7.90;99.90
14401;DHT22;7285;50.894;5.462;2023-04-07T03:32:52;7.90;99.90
14401;DHT22;7285;50.894;5.462;2023-04-07T03:35:19;7.80;99.90
14401;DHT22;7285;50.894;5.462;2023-04-07T03:37:46;7.90;99.90
14401;DHT22;7285;50.894;5.462;2023-04-07T03:40:13;7.80;99.90
14401;DHT22;7285;50.894;5.462;2023-04-07T03:42:40;7.90;99.90
14401;DHT22;7285;50.894;5.462;2023-04-07T03:45:09;7.80;99.90
14401;DHT22;7285;50.894;5.462;2023-04-07T03:47:36;7.80;99.90
14401;DHT22;7285;50.894;5.462;2023-04-07T03:50:03;7.80;99.90
14401;DHT22;7285;50.894;5.462;2023-04-07T03:52:30;7.70;99.90
14401;DHT22;7285;50.894;5.462;2023-04-07T03:54:57;7.80;99.90
14401;DHT22;7285;50.894;5.462;2023-04-07T03:57:25;7.80;99.90
14401;DHT22;7285;50.894;5.462;2023-04-07T03:59:51;7.70;99.90
14401;DHT22;7285;50.894;5.462;2023-04-07T04:02:21;7.70;99.90
14401;DHT22;7285;50.894;5.462;2023-04-07T04:04:48;7.80;99.90
14401;DHT22;7285;50.894;5.462;2023-04-07T04:07:15;7.80;99.90
14401;DHT22;7285;50.894;5.462;2023-04-07T04:09:41;7.80;99.90
14401;DHT22;7285;50.894;5.462;2023-04-07T04:12:08;7.80;99.90
14401;DHT22;7285;50.894;5.462;2023-04-07T04:14:35;7.70;99.90
14401;DHT22;7285;50.894;5.462;2023-04-07T04:17:02;7.70;99.90
14401;DHT22;7285;50.894;5.462;2023-04-07T04:19:31;7.80;99.90
14401;DHT22;7285;50.894;5.462;2023-04-07T04:21:58;7.70;99.90
14401;DHT22;7285;50.894;5.462;2023-04-07T04:24:25;7.70;99.90
14401;DHT22;7285;50.894;5.462;2023-04-07T04:26:53;7.70;99.90
14401;DHT22;7285;50.894;5.462;2023-04-07T04:29:21;7.70;99.90
14401;DHT22;7285;50.894;5.462;2023-04-07T04:31:48;7.80;99.90
14401;DHT22;7285;50.894;5.462;2023-04-07T04:34:15;7.60;99.90
14401;DHT22;7285;50.894;5.462;2023-04-07T04:36:44;7.70;99.90
14401;DHT22;7285;50.894;5.462;2023-04-07T04:39:11;7.70;99.90
14401;DHT22;7285;50.894;5.462;2023-04-07T04:41:38;7.60;99.90
14401;DHT22;7285;50.894;5.462;2023-04-07T04:44:04;7.60;99.90
14401;DHT22;7285;50.894;5.462;2023-04-07T04:46:32;7.60;99.90
14401;DHT22;7285;50.894;5.462;2023-04-07T04:48:59;7.60;99.90
14401;DHT22;7285;50.894;5.462;2023-04-07T04:51:26;7.60;99.90
14401;DHT22;7285;50.894;5.462;2023-04-07T04:53:54;7.60;99.90
14401;DHT22;7285;50.894;5.462;2023-04-07T04:56:21;7.50;99.90
14401;DHT22;7285;50.894;5.462;2023-04-07T04:58:48;7.60;99.90
14401;DHT22;7285;50.894;5.462;2023-04-07T05:01:15;7.50;99.90
14401;DHT22;7285;50.894;5.462;2023-04-07T05:03:42;7.50;99.90
14401;DHT22;7285;50.894;5.462;2023-04-07T05:06:09;7.50;99.90
14401;DHT22;7285;50.894;5.462;2023-04-07T05:08:36;7.50;99.90
14401;DHT22;7285;50.894;5.462;2023-04-07T05:11:04;7.50;99.90
14401;DHT22;7285;50.894;5.462;2023-04-07T05:13:31;7.40;99.90
14401;DHT22;7285;50.894;5.462;2023-04-07T05:15:58;7.50;99.90
14401;DHT22;7285;50.894;5.462;2023-04-07T05:18:25;7.50;99.90
14401;DHT22;7285;50.894;5.462;2023-04-07T05:20:52;7.40;99.90
14401;DHT22;7285;50.894;5.462;2023-04-07T05:23:19;7.50;99.90
14401;DHT22;7285;50.894;5.462;2023-04-07T05:25:46;7.50;99.90
14401;DHT22;7285;50.894;5.462;2023-04-07T05:28:14;7.50;99.90
14401;DHT22;7285;50.894;5.462;2023-04-07T05:30:41;7.50;99.90
14401;DHT22;7285;50.894;5.462;2023-04-07T05:33:08;7.50;99.90
14401;DHT22;7285;50.894;5.462;2023-04-07T05:35:35;7.50;99.90
14401;DHT22;7285;50.894;5.462;2023-04-07T05:38:02;7.50;99.90
14401;DHT22;7285;50.894;5.462;2023-04-07T05:40:29;7.40;99.90
14401;DHT22;7285;50.894;5.462;2023-04-07T05:42:56;7.30;99.90
14401;DHT22;7285;50.894;5.462;2023-04-07T05:45:25;7.40;99.90
14401;DHT22;7285;50.894;5.462;2023-04-07T05:47:52;7.40;99.90
14401;DHT22;7285;50.894;5.462;2023-04-07T05:50:19;7.30;99.90
14401;DHT22;7285;50.894;5.462;2023-04-07T05:52:46;7.20;99.90
14401;DHT22;7285;50.894;5.462;2023-04-07T05:55:12;7.30;99.90
14401;DHT22;7285;50.894;5.462;2023-04-07T05:57:40;7.20;99.90
14401;DHT22;7285;50.894;5.462;2023-04-07T06:00:08;7.20;99.90
14401;DHT22;7285;50.894;5.462;2023-04-07T06:02:36;7.10;99.90
14401;DHT22;7285;50.894;5.462;2023-04-07T06:05:05;7.00;99.90
14401;DHT22;7285;50.894;5.462;2023-04-07T06:07:32;7.00;99.90
14401;DHT22;7285;50.894;5.462;2023-04-07T06:09:59;7.00;99.90
14401;DHT22;7285;50.894;5.462;2023-04-07T06:12:25;6.80;99.90
14401;DHT22;7285;50.894;5.462;2023-04-07T06:14:54;6.80;99.90
14401;DHT22;7285;50.894;5.462;2023-04-07T06:17:21;6.80;99.90
14401;DHT22;7285;50.894;5.462;2023-04-07T06:19:49;6.80;99.90
14401;DHT22;7285;50.894;5.462;2023-04-07T06:22:16;6.90;99.90
14401;DHT22;7285;50.894;5.462;2023-04-07T06:24:43;6.90;99.90
14401;DHT22;7285;50.894;5.462;2023-04-07T06:27:10;6.90;99.90
14401;DHT22;7285;50.894;5.462;2023-04-07T06:29:37;7.00;99.90
14401;DHT22;7285;50.894;5.462;2023-04-07T06:32:05;7.20;99.90
14401;DHT22;7285;50.894;5.462;2023-04-07T06:34:32;7.20;99.90
14401;DHT22;7285;50.894;5.462;2023-04-07T06:37:01;7.20;99.90
14401;DHT22;7285;50.894;5.462;2023-04-07T06:39:30;7.30;99.90
14401;DHT22;7285;50.894;5.462;2023-04-07T06:41:57;7.40;99.90
14401;DHT22;7285;50.894;5.462;2023-04-07T06:44:24;7.50;99.90
14401;DHT22;7285;50.894;5.462;2023-04-07T06:46:51;7.50;99.90
14401;DHT22;7285;50.894;5.462;2023-04-07T06:49:19;7.60;99.90
14401;DHT22;7285;50.894;5.462;2023-04-07T06:51:46;7.60;99.90
14401;DHT22;7285;50.894;5.462;2023-04-07T06:54:15;7.70;99.90
14401;DHT22;7285;50.894;5.462;2023-04-07T06:56:42;7.60;99.90
14401;DHT22;7285;50.894;5.462;2023-04-07T06:59:09;7.60;99.90
14401;DHT22;7285;50.894;5.462;2023-04-07T07:01:36;7.60;99.90
14401;DHT22;7285;50.894;5.462;2023-04-07T07:04:03;7.70;99.90
14401;DHT22;7285;50.894;5.462;2023-04-07T07:06:31;7.80;99.90
14401;DHT22;7285;50.894;5.462;2023-04-07T07:08:58;7.70;99.90
14401;DHT22;7285;50.894;5.462;2023-04-07T07:11:26;7.70;99.90
14401;DHT22;7285;50.894;5.462;2023-04-07T07:13:53;7.70;99.90
14401;DHT22;7285;50.894;5.462;2023-04-07T07:16:20;7.70;99.90
14401;DHT22;7285;50.894;5.462;2023-04-07T07:18:49;7.80;99.90
14401;DHT22;7285;50.894;5.462;2023-04-07T07:21:16;7.80;99.90
14401;DHT22;7285;50.894;5.462;2023-04-07T07:23:44;7.90;99.90
14401;DHT22;7285;50.894;5.462;2023-04-07T07:26:11;8.00;99.90
14401;DHT22;7285;50.894;5.462;2023-04-07T07:28:39;8.00;99.90
14401;DHT22;7285;50.894;5.462;2023-04-07T07:31:09;8.00;99.90
14401;DHT22;7285;50.894;5.462;2023-04-07T07:33:38;8.00;99.90
14401;DHT22;7285;50.894;5.462;2023-04-07T07:36:06;8.00;99.90
14401;DHT22;7285;50.894;5.462;2023-04-07T07:38:33;8.10;99.90
14401;DHT22;7285;50.894;5.462;2023-04-07T07:41:00;8.30;99.90
14401;DHT22;7285;50.894;5.462;2023-04-07T07:43:29;8.40;99.90
14401;DHT22;7285;50.894;5.462;2023-04-07T07:45:57;8.50;99.90
14401;DHT22;7285;50.894;5.462;2023-04-07T07:48:24;8.80;99.90
14401;DHT22;7285;50.894;5.462;2023-04-07T07:50:51;9.10;99.90
14401;DHT22;7285;50.894;5.462;2023-04-07T07:53:18;9.30;99.90
14401;DHT22;7285;50.894;5.462;2023-04-07T07:55:45;9.40;99.90
14401;DHT22;7285;50.894;5.462;2023-04-07T07:58:12;9.60;99.90
14401;DHT22;7285;50.894;5.462;2023-04-07T08:00:39;9.60;99.90
14401;DHT22;7285;50.894;5.462;2023-04-07T08:03:08;9.60;99.90
14401;DHT22;7285;50.894;5.462;2023-04-07T08:05:35;9.70;99.90
14401;DHT22;7285;50.894;5.462;2023-04-07T08:08:02;9.80;90.80
14401;DHT22;7285;50.894;5.462;2023-04-07T08:10:29;9.90;27.00
14401;DHT22;7285;50.894;5.462;2023-04-07T08:12:56;10.00;21.60
14401;DHT22;7285;50.894;5.462;2023-04-07T08:15:23;10.00;1.00
14401;DHT22;7285;50.894;5.462;2023-04-07T08:17:50;10.00;1.00
14401;DHT22;7285;50.894;5.462;2023-04-07T08:20:18;10.10;1.00
14401;DHT22;7285;50.894;5.462;2023-04-07T08:22:45;10.00;1.00
14401;DHT22;7285;50.894;5.462;2023-04-07T08:25:12;9.90;1.00
14401;DHT22;7285;50.894;5.462;2023-04-07T08:27:39;9.80;1.00
14401;DHT22;7285;50.894;5.462;2023-04-07T08:30:06;9.80;99.90
14401;DHT22;7285;50.894;5.462;2023-04-07T08:32:39;9.90;1.00
14401;DHT22;7285;50.894;5.462;2023-04-07T08:35:06;9.80;1.00
14401;DHT22;7285;50.894;5.462;2023-04-07T08:37:36;9.70;99.90
14401;DHT22;7285;50.894;5.462;2023-04-07T08:40:04;9.70;99.90
14401;DHT22;7285;50.894;5.462;2023-04-07T08:42:33;9.70;99.90
14401;DHT22;7285;50.894;5.462;2023-04-07T08:45:02;9.90;1.00
14401;DHT22;7285;50.894;5.462;2023-04-07T08:47:30;9.90;1.00
14401;DHT22;7285;50.894;5.462;2023-04-07T08:50:00;9.90;99.90
14401;DHT22;7285;50.894;5.462;2023-04-07T08:52:33;10.10;1.00
14401;DHT22;7285;50.894;5.462;2023-04-07T08:55:03;10.10;1.00
14401;DHT22;7285;50.894;5.462;2023-04-07T08:57:32;10.20;99.90
14401;DHT22;7285;50.894;5.462;2023-04-07T09:00:00;10.30;99.90
14401;DHT22;7285;50.894;5.462;2023-04-07T09:02:31;10.30;61.10
14401;DHT22;7285;50.894;5.462;2023-04-07T09:04:58;10.50;99.90
14401;DHT22;7285;50.894;5.462;2023-04-07T09:07:26;10.60;1.00
14401;DHT22;7285;50.894;5.462;2023-04-07T09:09:54;10.60;74.10
14401;DHT22;7285;50.894;5.462;2023-04-07T09:12:22;10.60;1.00
14401;DHT22;7285;50.894;5.462;2023-04-07T09:14:50;10.70;99.90
14401;DHT22;7285;50.894;5.462;2023-04-07T09:17:18;10.70;99.90
14401;DHT22;7285;50.894;5.462;2023-04-07T09:19:45;10.70;99.90
14401;DHT22;7285;50.894;5.462;2023-04-07T09:22:13;10.80;1.00
14401;DHT22;7285;50.894;5.462;2023-04-07T09:24:40;10.80;1.00
14401;DHT22;7285;50.894;5.462;2023-04-07T09:27:08;11.00;1.00
14401;DHT22;7285;50.894;5.462;2023-04-07T09:29:40;11.10;99.90
14401;DHT22;7285;50.894;5.462;2023-04-07T09:32:08;11.30;23.50
14401;DHT22;7285;50.894;5.462;2023-04-07T09:34:37;11.30;1.00
14401;DHT22;7285;50.894;5.462;2023-04-07T09:37:06;11.30;1.00
14401;DHT22;7285;50.894;5.462;2023-04-07T09:39:36;11.30;1.00
14401;DHT22;7285;50.894;5.462;2023-04-07T09:42:14;11.30;99.90
14401;DHT22;7285;50.894;5.462;2023-04-07T09:44:43;11.30;1.00
14401;DHT22;7285;50.894;5.462;2023-04-07T09:47:10;11.20;1.00
14401;DHT22;7285;50.894;5.462;2023-04-07T09:49:48;11.20;99.90
14401;DHT22;7285;50.894;5.462;2023-04-07T09:52:17;11.10;99.90
14401;DHT22;7285;50.894;5.462;2023-04-07T09:54:45;11.10;99.90
14401;DHT22;7285;50.894;5.462;2023-04-07T09:57:13;11.00;1.00
14401;DHT22;7285;50.894;5.462;2023-04-07T09:59:43;11.00;99.90
14401;DHT22;7285;50.894;5.462;2023-04-07T10:02:11;11.00;1.00
14401;DHT22;7285;50.894;5.462;2023-04-07T10:04:39;10.90;47.80
14401;DHT22;7285;50.894;5.462;2023-04-07T10:07:07;10.90;1.00
14401;DHT22;7285;50.894;5.462;2023-04-07T10:09:34;11.00;1.00
14401;DHT22;7285;50.894;5.462;2023-04-07T10:12:01;11.10;1.00
14401;DHT22;7285;50.894;5.462;2023-04-07T10:14:30;11.30;99.90
14401;DHT22;7285;50.894;5.462;2023-04-07T10:16:59;11.30;1.00
14401;DHT22;7285;50.894;5.462;2023-04-07T10:19:29;11.30;1.00
14401;DHT22;7285;50.894;5.462;2023-04-07T10:21:57;11.20;1.00
14401;DHT22;7285;50.894;5.462;2023-04-07T10:24:39;11.30;99.90
14401;DHT22;7285;50.894;5.462;2023-04-07T10:27:13;12.00;99.90
14401;DHT22;7285;50.894;5.462;2023-04-07T10:29:42;12.20;99.90
14401;DHT22;7285;50.894;5.462;2023-04-07T10:32:12;12.00;1.00
14401;DHT22;7285;50.894;5.462;2023-04-07T10:34:57;12.00;1.00
14401;DHT22;7285;50.894;5.462;2023-04-07T10:37:26;12.00;99.90
14401;DHT22;7285;50.894;5.462;2023-04-07T10:40:26;12.20;29.20
14401;DHT22;7285;50.894;5.462;2023-04-07T10:42:53;12.40;1.00
14401;DHT22;7285;50.894;5.462;2023-04-07T10:45:52;12.80;1.00
14401;DHT22;7285;50.894;5.462;2023-04-07T10:48:22;12.90;1.00
14401;DHT22;7285;50.894;5.462;2023-04-07T10:51:14;12.70;49.00
14401;DHT22;7285;50.894;5.462;2023-04-07T10:57:07;12.40;20.60
14401;DHT22;7285;50.894;5.462;2023-04-07T10:59:35;12.40;1.00
14401;DHT22;7285;50.894;5.462;2023-04-07T11:02:33;12.40;30.00
14401;DHT22;7285;50.894;5.462;2023-04-07T11:05:02;12.50;1.00
14401;DHT22;7285;50.894;5.462;2023-04-07T11:07:50;12.50;1.00
14401;DHT22;7285;50.894;5.462;2023-04-07T11:10:19;12.40;1.00
14401;DHT22;7285;50.894;5.462;2023-04-07T11:13:01;12.40;1.00
14401;DHT22;7285;50.894;5.462;2023-04-07T11:15:28;12.30;1.00
14401;DHT22;7285;50.894;5.462;2023-04-07T11:18:13;12.10;99.90
14401;DHT22;7285;50.894;5.462;2023-04-07T11:20:44;12.20;1.00
14401;DHT22;7285;50.894;5.462;2023-04-07T11:23:12;12.10;1.00
14401;DHT22;7285;50.894;5.462;2023-04-07T11:25:41;12.00;1.00
14401;DHT22;7285;50.894;5.462;2023-04-07T11:28:10;12.10;1.00
14401;DHT22;7285;50.894;5.462;2023-04-07T11:30:38;12.00;1.00
14401;DHT22;7285;50.894;5.462;2023-04-07T11:33:06;11.90;1.00
14401;DHT22;7285;50.894;5.462;2023-04-07T11:35:34;12.10;1.00
14401;DHT22;7285;50.894;5.462;2023-04-07T11:38:02;12.10;1.00
14401;DHT22;7285;50.894;5.462;2023-04-07T11:40:34;12.20;1.00
14401;DHT22;7285;50.894;5.462;2023-04-07T11:43:01;12.30;1.00
14401;DHT22;7285;50.894;5.462;2023-04-07T11:45:29;12.50;1.00
14401;DHT22;7285;50.894;5.462;2023-04-07T11:47:56;12.70;1.00
14401;DHT22;7285;50.894;5.462;2023-04-07T11:50:39;12.80;99.90
14401;DHT22;7285;50.894;5.462;2023-04-07T11:53:08;12.90;99.90
14401;DHT22;7285;50.894;5.462;2023-04-07T11:55:35;12.90;99.90
14401;DHT22;7285;50.894;5.462;2023-04-07T11:58:06;13.20;1.00
14401;DHT22;7285;50.894;5.462;2023-04-07T12:00:35;13.00;99.90
14401;DHT22;7285;50.894;5.462;2023-04-07T12:03:09;13.10;6.90
14401;DHT22;7285;50.894;5.462;2023-04-07T12:05:42;13.20;1.00
14401;DHT22;7285;50.894;5.462;2023-04-07T12:08:11;13.00;1.00
14401;DHT22;7285;50.894;5.462;2023-04-07T12:10:38;13.00;1.00
14401;DHT22;7285;50.894;5.462;2023-04-07T12:13:06;13.10;1.00
14401;DHT22;7285;50.894;5.462;2023-04-07T12:15:34;13.10;1.00
14401;DHT22;7285;50.894;5.462;2023-04-07T12:18:01;13.10;1.00
14401;DHT22;7285;50.894;5.462;2023-04-07T12:20:28;13.10;1.00
14401;DHT22;7285;50.894;5.462;2023-04-07T12:22:56;13.10;1.00
14401;DHT22;7285;50.894;5.462;2023-04-07T12:25:25;13.00;1.00
14401;DHT22;7285;50.894;5.462;2023-04-07T12:27:53;12.90;1.00
14401;DHT22;7285;50.894;5.462;2023-04-07T12:30:20;12.70;1.00
14401;DHT22;7285;50.894;5.462;2023-04-07T12:32:47;12.50;1.00
14401;DHT22;7285;50.894;5.462;2023-04-07T12:35:13;12.30;1.00
14401;DHT22;7285;50.894;5.462;2023-04-07T12:37:41;12.00;1.00
14401;DHT22;7285;50.894;5.462;2023-04-07T12:40:08;11.70;99.90
14401;DHT22;7285;50.894;5.462;2023-04-07T12:42:37;11.40;99.90
14401;DHT22;7285;50.894;5.462;2023-04-07T12:45:04;11.20;99.90
14401;DHT22;7285;50.894;5.462;2023-04-07T12:47:31;11.10;1.00
14401;DHT22;7285;50.894;5.462;2023-04-07T12:49:58;11.10;1.00
14401;DHT22;7285;50.894;5.462;2023-04-07T12:52:26;10.90;1.00
14401;DHT22;7285;50.894;5.462;2023-04-07T12:54:53;10.80;99.90
14401;DHT22;7285;50.894;5.462;2023-04-07T12:57:20;10.80;99.90
14401;DHT22;7285;50.894;5.462;2023-04-07T12:59:48;10.80;99.90
14401;DHT22;7285;50.894;5.462;2023-04-07T13:02:16;10.80;1.00
14401;DHT22;7285;50.894;5.462;2023-04-07T13:04:44;10.80;1.00
14401;DHT22;7285;50.894;5.462;2023-04-07T13:07:11;10.90;1.00
14401;DHT22;7285;50.894;5.462;2023-04-07T13:09:38;10.90;1.00
14401;DHT22;7285;50.894;5.462;2023-04-07T13:12:08;11.00;1.00
14401;DHT22;7285;50.894;5.462;2023-04-07T13:14:35;11.00;99.90
14401;DHT22;7285;50.894;5.462;2023-04-07T13:17:04;11.00;99.90
14401;DHT22;7285;50.894;5.462;2023-04-07T13:19:31;11.00;1.00
14401;DHT22;7285;50.894;5.462;2023-04-07T13:21:58;11.00;99.90
14401;DHT22;7285;50.894;5.462;2023-04-07T13:24:26;11.00;99.90
14401;DHT22;7285;50.894;5.462;2023-04-07T13:26:53;10.90;99.90
14401;DHT22;7285;50.894;5.462;2023-04-07T13:29:20;11.00;99.90
14401;DHT22;7285;50.894;5.462;2023-04-07T13:31:47;11.00;99.90
14401;DHT22;7285;50.894;5.462;2023-04-07T13:34:15;11.00;19.20
14401;DHT22;7285;50.894;5.462;2023-04-07T13:36:43;11.00;1.00
14401;DHT22;7285;50.894;5.462;2023-04-07T13:39:10;11.20;1.00
14401;DHT22;7285;50.894;5.462;2023-04-07T13:41:37;11.30;1.00
14401;DHT22;7285;50.894;5.462;2023-04-07T13:44:04;11.40;99.90
14401;DHT22;7285;50.894;5.462;2023-04-07T13:46:31;11.60;99.90
14401;DHT22;7285;50.894;5.462;2023-04-07T13:48:58;11.90;99.90
14401;DHT22;7285;50.894;5.462;2023-04-07T13:51:26;12.10;99.90
14401;DHT22;7285;50.894;5.462;2023-04-07T13:53:54;12.30;99.90
14401;DHT22;7285;50.894;5.462;2023-04-07T13:56:21;12.40;99.90
14401;DHT22;7285;50.894;5.462;2023-04-07T13:58:48;12.30;1.00
14401;DHT22;7285;50.894;5.462;2023-04-07T14:01:15;12.30;1.00
14401;DHT22;7285;50.894;5.462;2023-04-07T14:03:42;12.30;1.00
14401;DHT22;7285;50.894;5.462;2023-04-07T14:06:09;12.30;1.00
14401;DHT22;7285;50.894;5.462;2023-04-07T14:08:37;12.30;1.00
14401;DHT22;7285;50.894;5.462;2023-04-07T14:11:04;12.40;1.00
14401;DHT22;7285;50.894;5.462;2023-04-07T14:13:31;12.20;1.00
14401;DHT22;7285;50.894;5.462;2023-04-07T14:15:58;12.20;1.00
14401;DHT22;7285;50.894;5.462;2023-04-07T14:18:25;12.30;1.00
14401;DHT22;7285;50.894;5.462;2023-04-07T14:20:52;12.30;1.00
14401;DHT22;7285;50.894;5.462;2023-04-07T14:23:19;12.20;1.00
14401;DHT22;7285;50.894;5.462;2023-04-07T14:25:48;12.20;1.00
14401;DHT22;7285;50.894;5.462;2023-04-07T14:28:15;12.20;1.00
14401;DHT22;7285;50.894;5.462;2023-04-07T14:30:41;12.20;1.00
14401;DHT22;7285;50.894;5.462;2023-04-07T14:33:09;12.20;1.00
14401;DHT22;7285;50.894;5.462;2023-04-07T14:35:36;12.30;1.00
14401;DHT22;7285;50.894;5.462;2023-04-07T14:38:03;12.30;1.00
14401;DHT22;7285;50.894;5.462;2023-04-07T14:40:31;12.30;1.00
14401;DHT22;7285;50.894;5.462;2023-04-07T14:43:00;12.40;1.00
14401;DHT22;7285;50.894;5.462;2023-04-07T14:45:28;12.50;1.00
14401;DHT22;7285;50.894;5.462;2023-04-07T14:47:55;12.30;1.00
14401;DHT22;7285;50.894;5.462;2023-04-07T14:50:22;12.50;1.00
14401;DHT22;7285;50.894;5.462;2023-04-07T14:52:49;12.60;1.00
14401;DHT22;7285;50.894;5.462;2023-04-07T14:55:16;12.50;1.00
14401;DHT22;7285;50.894;5.462;2023-04-07T14:57:43;12.40;1.00
14401;DHT22;7285;50.894;5.462;2023-04-07T15:00:13;12.40;1.00
14401;DHT22;7285;50.894;5.462;2023-04-07T15:02:40;12.40;1.00
14401;DHT22;7285;50.894;5.462;2023-04-07T15:05:08;12.20;1.00
14401;DHT22;7285;50.894;5.462;2023-04-07T15:07:35;12.00;1.00
14401;DHT22;7285;50.894;5.462;2023-04-07T15:10:02;11.90;1.00
14401;DHT22;7285;50.894;5.462;2023-04-07T15:12:29;11.90;1.00
14401;DHT22;7285;50.894;5.462;2023-04-07T15:14:58;11.90;1.00
14401;DHT22;7285;50.894;5.462;2023-04-07T15:17:26;12.00;1.00
14401;DHT22;7285;50.894;5.462;2023-04-07T15:19:53;12.00;1.00
14401;DHT22;7285;50.894;5.462;2023-04-07T15:22:20;11.90;1.00
14401;DHT22;7285;50.894;5.462;2023-04-07T15:24:47;11.80;1.00
14401;DHT22;7285;50.894;5.462;2023-04-07T15:27:14;11.90;1.00
14401;DHT22;7285;50.894;5.462;2023-04-07T15:29:41;12.00;1.00
14401;DHT22;7285;50.894;5.462;2023-04-07T15:32:08;12.00;1.00
14401;DHT22;7285;50.894;5.462;2023-04-07T15:34:36;11.90;1.00
14401;DHT22;7285;50.894;5.462;2023-04-07T15:37:03;11.80;1.00
14401;DHT22;7285;50.894;5.462;2023-04-07T15:39:30;11.80;1.00
14401;DHT22;7285;50.894;5.462;2023-04-07T15:41:57;11.90;1.00
14401;DHT22;7285;50.894;5.462;2023-04-07T15:44:24;11.70;1.00
14401;DHT22;7285;50.894;5.462;2023-04-07T15:46:51;11.60;1.00
14401;DHT22;7285;50.894;5.462;2023-04-07T15:49:18;11.50;1.00
14401;DHT22;7285;50.894;5.462;2023-04-07T15:51:48;11.50;1.00
14401;DHT22;7285;50.894;5.462;2023-04-07T15:54:15;11.50;1.00
14401;DHT22;7285;50.894;5.462;2023-04-07T15:56:42;11.50;1.00
14401;DHT22;7285;50.894;5.462;2023-04-07T15:59:09;11.50;1.00
14401;DHT22;7285;50.894;5.462;2023-04-07T16:01:36;11.40;1.00
14401;DHT22;7285;50.894;5.462;2023-04-07T16:04:03;11.30;1.00
14401;DHT22;7285;50.894;5.462;2023-04-07T16:06:30;11.30;1.00
14401;DHT22;7285;50.894;5.462;2023-04-07T16:08:58;11.30;1.00
14401;DHT22;7285;50.894;5.462;2023-04-07T16:11:25;11.30;1.00